createdAt,value
2016-11-19T00:00:28.068Z,8.11
2016-11-19T00:01:43.603Z,8.18
2016-11-19T00:02:59.229Z,8.24
2016-11-19T00:04:15.612Z,8.21
2016-11-19T00:05:44.141Z,8.16
2016-11-19T00:06:58.953Z,8.21
2016-11-19T00:08:14.873Z,8.13
2016-11-19T00:09:29.574Z,8.2
2016-11-19T00:10:44.472Z,8.21
2016-11-19T00:11:59.060Z,8.27
2016-11-19T00:13:14.629Z,8.26
2016-11-19T00:14:50.202Z,8.16
2016-11-19T00:16:05.055Z,8.21
2016-11-19T00:17:20.557Z,8.16
2016-11-19T00:18:35.137Z,8.14
2016-11-19T00:19:49.790Z,8.16
2016-11-19T00:21:04.326Z,8.2
2016-11-19T00:22:19.085Z,8.11
2016-11-19T00:23:34.075Z,8.14
2016-11-19T00:24:48.702Z,8.05
2016-11-19T00:26:03.824Z,8.14
2016-11-19T00:27:18.583Z,8.14
2016-11-19T00:31:12.436Z,8.21
2016-11-19T00:32:27.298Z,8.23
2016-11-19T00:33:43.982Z,8.24
2016-11-19T00:34:59.605Z,8.21
2016-11-19T00:36:16.632Z,8.26
2016-11-19T00:37:31.460Z,8.24
2016-11-19T00:39:15.799Z,8.32
2016-11-19T00:40:30.661Z,8.34
2016-11-19T00:41:45.061Z,8.35
2016-11-19T00:43:00.680Z,8.35
2016-11-19T00:44:15.975Z,8.24
2016-11-19T00:45:30.647Z,8.24
2016-11-19T00:46:45.204Z,8.28
2016-11-19T00:47:59.534Z,8.24
2016-11-19T00:50:46.327Z,8.32
2016-11-19T00:52:01.048Z,8.2
2016-11-19T00:53:17.890Z,8.21
2016-11-19T00:54:32.596Z,8.24
2016-11-19T00:55:47.909Z,8.21
2016-11-19T00:57:03.561Z,8.26
2016-11-19T00:58:18.052Z,8.17
2016-11-19T00:59:33.133Z,8.11
2016-11-19T01:00:47.719Z,8.16
2016-11-19T01:02:02.415Z,8.09
2016-11-19T01:03:17.191Z,8.09
2016-11-19T01:04:32.150Z,8.06
2016-11-19T01:05:47.496Z,8.08
2016-11-19T01:07:02.030Z,8.03
2016-11-19T01:08:16.818Z,8.02
2016-11-19T01:09:31.432Z,7.98
2016-11-19T01:10:45.773Z,7.99
2016-11-19T01:12:00.447Z,7.91
2016-11-19T01:13:15.493Z,7.83
2016-11-19T01:14:30.171Z,7.81
2016-11-19T01:15:44.849Z,7.88
2016-11-19T01:17:01.442Z,7.9
2016-11-19T01:18:15.896Z,7.83
2016-11-19T01:19:30.948Z,7.81
2016-11-19T01:20:45.530Z,7.74
2016-11-19T01:22:00.052Z,7.81
2016-11-19T01:23:14.795Z,7.75
2016-11-19T01:24:29.515Z,7.66
2016-11-19T01:25:44.505Z,7.69
2016-11-19T01:26:59.201Z,7.69
2016-11-19T01:28:14.345Z,7.66
2016-11-19T01:29:29.102Z,7.8
2016-11-19T01:30:43.689Z,7.8
2016-11-19T01:31:58.179Z,7.83
2016-11-19T01:33:12.777Z,7.78
2016-11-19T01:34:27.387Z,7.64
2016-11-19T01:41:37.512Z,7.8
2016-11-19T01:42:51.874Z,7.81
2016-11-19T01:44:24.683Z,7.84
2016-11-19T01:45:39.227Z,7.84
2016-11-19T01:46:53.825Z,7.78
2016-11-19T01:48:08.562Z,7.8
2016-11-19T01:49:22.997Z,7.8
2016-11-19T01:50:37.971Z,7.72
2016-11-19T01:51:53.643Z,7.62
2016-11-19T01:56:21.133Z,7.69
2016-11-19T01:57:35.898Z,7.72
2016-11-19T01:59:10.669Z,7.78
2016-11-19T02:00:25.033Z,7.84
2016-11-19T02:01:39.829Z,7.81
2016-11-19T02:02:54.292Z,7.77
2016-11-19T02:04:08.742Z,7.8
2016-11-19T02:05:23.040Z,7.74
2016-11-19T02:06:37.789Z,7.77
2016-11-19T02:07:52.358Z,7.84
2016-11-19T02:09:07.188Z,7.67
2016-11-19T02:10:21.455Z,7.78
2016-11-19T02:11:35.997Z,7.84
2016-11-19T02:12:50.601Z,7.83
2016-11-19T02:14:05.232Z,7.83
2016-11-19T02:15:19.772Z,7.84
2016-11-19T02:16:34.481Z,7.78
2016-11-19T02:17:49.026Z,7.8
2016-11-19T02:19:03.840Z,7.83
2016-11-19T02:20:18.561Z,7.75
2016-11-19T02:21:33.090Z,7.78
2016-11-19T02:22:47.924Z,7.81
2016-11-19T02:24:02.619Z,7.72
2016-11-19T02:25:17.203Z,7.81
2016-11-19T02:26:31.830Z,7.74
2016-11-19T02:27:46.277Z,7.84
2016-11-19T02:29:00.807Z,7.78
2016-11-19T02:30:15.250Z,7.8
2016-11-19T02:31:29.861Z,7.75
2016-11-19T02:32:44.352Z,7.78
2016-11-19T02:33:58.870Z,7.8
2016-11-19T02:35:13.331Z,7.8
2016-11-19T02:36:27.827Z,7.78
2016-11-19T02:37:42.195Z,7.81
2016-11-19T02:38:56.813Z,7.74
2016-11-19T02:40:28.494Z,7.81
2016-11-19T02:41:43.203Z,7.8
2016-11-19T02:42:57.586Z,7.85
2016-11-19T02:44:12.991Z,7.81
2016-11-19T02:45:27.826Z,7.8
2016-11-19T02:46:42.181Z,7.81
2016-11-19T02:47:56.565Z,7.69
2016-11-19T02:49:11.167Z,7.83
2016-11-19T02:50:26.056Z,7.83
2016-11-19T02:51:40.968Z,7.77
2016-11-19T02:52:55.324Z,7.7
2016-11-19T02:54:09.784Z,7.77
2016-11-19T02:55:24.325Z,7.78
2016-11-19T02:56:38.908Z,7.81
2016-11-19T02:57:53.097Z,7.81
2016-11-19T02:59:07.991Z,7.78
2016-11-19T03:00:32.393Z,7.75
2016-11-19T03:01:47.387Z,7.7
2016-11-19T03:03:01.803Z,7.69
2016-11-19T03:04:16.541Z,7.59
2016-11-19T03:05:31.169Z,7.59
2016-11-19T03:06:46.502Z,7.61
2016-11-19T03:08:01.285Z,7.58
2016-11-19T03:09:16.371Z,7.47
2016-11-19T03:10:31.126Z,7.41
2016-11-19T03:11:45.871Z,7.61
2016-11-19T03:13:00.708Z,7.74
2016-11-19T03:14:15.567Z,7.58
2016-11-19T03:15:29.910Z,7.58
2016-11-19T03:16:44.597Z,7.55
2016-11-19T03:17:59.163Z,7.5
2016-11-19T03:19:14.008Z,7.5
2016-11-19T03:20:28.749Z,7.48
2016-11-19T03:21:43.499Z,7.47
2016-11-19T03:22:58.482Z,7.44
2016-11-19T03:24:13.103Z,7.4
2016-11-19T03:25:27.941Z,7.58
2016-11-19T03:26:42.779Z,7.58
2016-11-19T03:27:57.282Z,7.58
2016-11-19T03:29:11.782Z,7.48
2016-11-19T03:30:26.971Z,7.36
2016-11-19T03:31:41.928Z,7.31
2016-11-19T03:32:56.744Z,7.29
2016-11-19T03:34:11.617Z,7.14
2016-11-19T03:35:40.877Z,7.13
2016-11-19T03:36:55.842Z,7.11
2016-11-19T03:38:10.319Z,7.11
2016-11-19T03:39:25.841Z,7.08
2016-11-19T03:40:40.543Z,7.01
2016-11-19T03:41:54.999Z,7
2016-11-19T03:43:24.618Z,7
2016-11-19T03:44:39.775Z,7
2016-11-19T03:45:54.523Z,6.96
2016-11-19T03:47:08.975Z,6.97
2016-11-19T03:48:23.879Z,7.14
2016-11-19T03:49:38.492Z,7.13
2016-11-19T03:50:53.303Z,7.14
2016-11-19T03:52:08.130Z,7.22
2016-11-19T03:53:22.899Z,7.23
2016-11-19T03:54:37.812Z,7.28
2016-11-19T03:55:52.195Z,7.25
2016-11-19T03:57:21.946Z,7.25
2016-11-19T03:58:39.194Z,7.18
2016-11-19T03:59:54.294Z,7.29
2016-11-19T04:01:08.994Z,7.22
2016-11-19T04:02:24.189Z,7.23
2016-11-19T04:03:38.708Z,7.37
2016-11-19T04:04:53.604Z,7.4
2016-11-19T04:06:08.637Z,7.44
2016-11-19T04:07:23.623Z,7.5
2016-11-19T04:08:39.169Z,7.44
2016-11-19T04:09:53.773Z,7.47
2016-11-19T04:11:08.628Z,7.55
2016-11-19T04:12:38.336Z,7.48
2016-11-19T04:13:53.230Z,7.5
2016-11-19T04:15:07.629Z,7.55
2016-11-19T04:16:21.865Z,7.44
2016-11-19T04:17:37.127Z,7.48
2016-11-19T04:18:51.449Z,7.53
2016-11-19T04:20:05.886Z,7.41
2016-11-19T04:21:20.690Z,7.36
2016-11-19T04:22:35.878Z,7.36
2016-11-19T04:23:51.065Z,7.39
2016-11-19T04:25:06.259Z,7.37
2016-11-19T04:26:20.638Z,7.25
2016-11-19T04:27:35.273Z,7.22
2016-11-19T04:28:49.952Z,7.28
2016-11-19T04:30:05.431Z,7.13
2016-11-19T04:31:20.259Z,7.19
2016-11-19T04:32:34.592Z,7.03
2016-11-19T04:33:49.104Z,7.05
2016-11-19T04:35:04.119Z,7.19
2016-11-19T04:36:19.115Z,7.26
2016-11-19T04:37:34.528Z,7.29
2016-11-19T04:38:48.920Z,7.26
2016-11-19T04:40:03.514Z,7.26
2016-11-19T04:41:18.156Z,7.29
2016-11-19T04:42:32.931Z,7.26
2016-11-19T04:43:48.053Z,7.32
2016-11-19T04:45:02.621Z,7.4
2016-11-19T04:46:17.296Z,7.33
2016-11-19T04:47:32.134Z,7.44
2016-11-19T04:48:47.541Z,7.41
2016-11-19T04:50:02.444Z,7.4
2016-11-19T04:51:17.119Z,7.56
2016-11-19T04:52:31.612Z,7.59
2016-11-19T04:53:46.364Z,7.58
2016-11-19T04:55:01.692Z,7.64
2016-11-19T04:56:31.147Z,7.62
2016-11-19T04:57:45.674Z,7.59
2016-11-19T04:59:00.297Z,7.56
2016-11-19T05:00:15.128Z,7.5
2016-11-19T05:01:30.222Z,7.46
2016-11-19T05:02:45.104Z,7.36
2016-11-19T05:03:59.595Z,7.48
2016-11-19T05:05:14.207Z,7.55
2016-11-19T05:06:30.034Z,7.48
2016-11-19T05:07:44.901Z,7.4
2016-11-19T05:08:59.889Z,7.43
2016-11-19T05:10:14.298Z,7.39
2016-11-19T05:11:28.875Z,7.4
2016-11-19T05:12:43.689Z,7.39
2016-11-19T05:13:58.477Z,7.48
2016-11-19T05:15:13.290Z,7.44
2016-11-19T05:16:30.272Z,7.36
2016-11-19T05:17:45.086Z,7.37
2016-11-19T05:18:59.921Z,7.44
2016-11-19T05:20:14.585Z,7.43
2016-11-19T05:21:43.317Z,7.41
2016-11-19T05:22:57.811Z,7.41
2016-11-19T05:24:12.021Z,7.46
2016-11-19T05:25:26.557Z,7.47
2016-11-19T05:26:41.309Z,7.48
2016-11-19T05:27:56.157Z,7.51
2016-11-19T05:29:11.205Z,7.59
2016-11-19T05:30:25.755Z,7.62
2016-11-19T05:31:40.138Z,7.58
2016-11-19T05:32:54.881Z,7.7
2016-11-19T05:34:09.443Z,7.61
2016-11-19T05:35:24.778Z,7.62
2016-11-19T05:36:39.031Z,7.66
2016-11-19T05:37:53.386Z,7.61
2016-11-19T05:39:07.876Z,7.61
2016-11-19T05:40:22.467Z,7.62
2016-11-19T05:41:37.825Z,7.7
2016-11-19T05:42:52.736Z,7.66
2016-11-19T05:44:07.504Z,7.77
2016-11-19T05:45:22.750Z,7.85
2016-11-19T05:46:37.125Z,7.83
2016-11-19T05:47:52.440Z,7.66
2016-11-19T05:49:07.132Z,7.69
2016-11-19T05:50:21.932Z,7.72
2016-11-19T05:51:36.410Z,7.66
2016-11-19T05:52:51.063Z,7.64
2016-11-19T05:54:06.039Z,7.77
2016-11-19T05:55:20.565Z,7.84
2016-11-19T05:56:35.220Z,7.77
2016-11-19T05:57:49.869Z,7.75
2016-11-19T05:59:04.929Z,7.81
2016-11-19T06:02:04.048Z,7.84
2016-11-19T06:03:18.693Z,7.93
2016-11-19T06:04:33.536Z,8.05
2016-11-19T06:05:48.267Z,8.01
2016-11-19T06:07:02.792Z,8.14
2016-11-19T06:08:17.479Z,8.11
2016-11-19T06:09:32.194Z,8.14
2016-11-19T06:10:47.037Z,8.16
2016-11-19T06:12:02.123Z,8.21
2016-11-19T06:13:16.431Z,8.21
2016-11-19T06:14:30.819Z,8.27
2016-11-19T06:15:45.472Z,8.26
2016-11-19T06:16:59.961Z,8.27
2016-11-19T06:18:15.446Z,8.36
2016-11-19T06:19:29.823Z,8.38
2016-11-19T06:20:44.281Z,8.31
2016-11-19T06:21:59.026Z,8.41
2016-11-19T06:23:13.653Z,8.44
2016-11-19T06:24:28.979Z,8.42
2016-11-19T06:25:43.428Z,8.45
2016-11-19T06:26:57.781Z,8.32
2016-11-19T06:28:12.278Z,8.32
2016-11-19T06:29:27.265Z,8.46
2016-11-19T06:30:42.105Z,8.42
2016-11-19T06:31:56.417Z,8.42
2016-11-19T06:33:11.223Z,8.45
2016-11-19T06:34:28.163Z,8.39
2016-11-19T06:35:43.187Z,8.54
2016-11-19T06:36:57.676Z,8.53
2016-11-19T06:38:12.062Z,8.53
2016-11-19T06:39:26.684Z,8.59
2016-11-19T06:40:41.006Z,8.63
2016-11-19T06:41:55.907Z,8.63
2016-11-19T06:43:10.725Z,8.61
2016-11-19T06:44:25.539Z,8.69
2016-11-19T06:45:39.862Z,8.69
2016-11-19T06:46:54.324Z,8.78
2016-11-19T06:48:08.746Z,8.75
2016-11-19T06:49:23.797Z,8.71
2016-11-19T06:50:38.315Z,8.75
2016-11-19T06:51:53.379Z,8.77
2016-11-19T06:53:08.333Z,8.78
2016-11-19T06:54:22.634Z,8.77
2016-11-19T06:55:38.149Z,8.84
2016-11-19T06:56:52.615Z,8.84
2016-11-19T06:58:21.899Z,8.75
2016-11-19T06:59:36.672Z,8.82
2016-11-19T07:00:51.514Z,8.77
2016-11-19T07:02:06.397Z,8.89
2016-11-19T07:03:20.909Z,8.87
2016-11-19T07:04:35.195Z,8.9
2016-11-19T07:05:49.799Z,8.92
2016-11-19T07:10:46.666Z,8.9
2016-11-19T07:12:01.402Z,8.92
2016-11-19T07:13:16.216Z,8.9
2016-11-19T07:14:31.190Z,8.86
2016-11-19T07:15:46.694Z,8.92
2016-11-19T07:17:01.275Z,8.97
2016-11-19T07:18:16.240Z,8.92
2016-11-19T07:19:30.984Z,8.93
2016-11-19T07:20:45.690Z,8.92
2016-11-19T07:22:00.597Z,8.89
2016-11-19T07:23:15.861Z,8.86
2016-11-19T07:24:30.387Z,9.03
2016-11-19T07:25:45.377Z,9.03
2016-11-19T07:26:59.845Z,9.02
2016-11-19T07:28:14.610Z,9.03
2016-11-19T07:29:29.825Z,9.08
2016-11-19T07:30:44.788Z,9.09
2016-11-19T07:31:59.714Z,9.18
2016-11-19T07:33:29.134Z,9.19
2016-11-19T07:34:43.896Z,9.16
2016-11-19T07:35:58.750Z,9.29
2016-11-19T07:37:13.661Z,9.29
2016-11-19T07:38:28.843Z,9.24
2016-11-19T07:39:43.593Z,9.26
2016-11-19T07:40:58.772Z,9.27
2016-11-19T07:42:13.603Z,9.29
2016-11-19T07:43:28.329Z,9.39
2016-11-19T07:44:43.452Z,9.33
2016-11-19T07:47:27.809Z,9.3
2016-11-19T07:48:43.033Z,9.34
2016-11-19T07:49:58.347Z,9.33
2016-11-19T07:51:13.516Z,9.29
2016-11-19T07:52:28.899Z,9.33
2016-11-19T07:53:43.736Z,9.33
2016-11-19T07:55:01.469Z,9.33
2016-11-19T07:56:16.952Z,9.37
2016-11-19T07:57:31.980Z,9.36
2016-11-19T07:58:47.245Z,9.36
2016-11-19T08:00:01.952Z,9.27
2016-11-19T08:01:17.197Z,9.12
2016-11-19T08:02:32.714Z,9.12
2016-11-19T08:03:47.515Z,9.05
2016-11-19T08:05:02.386Z,9.11
2016-11-19T08:06:17.329Z,9.08
2016-11-19T08:07:32.312Z,9.19
2016-11-19T08:08:47.085Z,9.19
2016-11-19T08:10:01.641Z,9.22
2016-11-19T08:11:16.609Z,9.19
2016-11-19T08:12:31.181Z,9.16
2016-11-19T08:13:46.337Z,9.29
2016-11-19T08:15:00.695Z,9.29
2016-11-19T08:16:15.786Z,9.3
2016-11-19T08:17:30.907Z,9.3
2016-11-19T08:18:45.542Z,9.33
2016-11-19T08:20:00.421Z,9.37
2016-11-19T08:21:14.966Z,9.24
2016-11-19T08:22:29.605Z,9.29
2016-11-19T08:23:44.305Z,9.31
2016-11-19T08:24:58.824Z,9.27
2016-11-19T08:26:14.373Z,9.3
2016-11-19T08:27:28.783Z,9.27
2016-11-19T08:28:43.590Z,9.29
2016-11-19T08:29:58.410Z,9.31
2016-11-19T08:31:12.907Z,9.31
2016-11-19T08:32:42.412Z,9.34
2016-11-19T08:33:56.875Z,9.36
2016-11-19T08:35:11.863Z,9.33
2016-11-19T08:36:26.595Z,9.39
2016-11-19T08:37:41.721Z,9.29
2016-11-19T08:38:56.593Z,9.29
2016-11-19T08:40:11.575Z,9.26
2016-11-19T08:41:26.108Z,9.3
2016-11-19T08:42:41.018Z,9.27
2016-11-19T08:43:56.327Z,9.33
2016-11-19T08:45:10.904Z,9.3
2016-11-19T08:46:26.075Z,9.21
2016-11-19T08:47:40.814Z,9.11
2016-11-19T08:48:55.365Z,9.21
2016-11-19T08:50:10.234Z,9.18
2016-11-19T08:51:24.843Z,9.21
2016-11-19T08:52:39.608Z,9
2016-11-19T08:53:53.953Z,9.05
2016-11-19T08:55:08.464Z,9.08
2016-11-19T08:56:23.470Z,9.12
2016-11-19T08:57:39.997Z,9.05
2016-11-19T08:58:54.952Z,9.08
2016-11-19T09:00:09.407Z,8.92
2016-11-19T09:01:24.190Z,8.93
2016-11-19T09:02:39.540Z,9.02
2016-11-19T09:03:54.291Z,9.03
2016-11-19T09:05:10.325Z,9
2016-11-19T09:06:43.615Z,9.12
2016-11-19T09:07:58.479Z,9.03
2016-11-19T09:09:12.941Z,9.16
2016-11-19T09:10:27.349Z,9.22
2016-11-19T09:11:42.043Z,9.21
2016-11-19T09:12:58.975Z,9.21
2016-11-19T09:14:13.981Z,9.12
2016-11-19T09:15:28.767Z,9.21
2016-11-19T09:16:43.151Z,9.19
2016-11-19T09:19:27.646Z,9.3
2016-11-19T09:20:42.157Z,9.18
2016-11-19T09:21:57.356Z,9.12
2016-11-19T09:23:26.462Z,9.03
2016-11-19T09:24:41.001Z,8.95
2016-11-19T09:25:55.676Z,9.03
2016-11-19T09:27:10.850Z,8.95
2016-11-19T09:28:25.611Z,9.02
2016-11-19T09:29:40.928Z,9.02
2016-11-19T09:30:55.474Z,9.08
2016-11-19T09:32:10.511Z,9.03
2016-11-19T09:33:24.898Z,8.99
2016-11-19T09:34:40.219Z,9.02
2016-11-19T09:36:09.672Z,8.96
2016-11-19T09:37:26.115Z,8.89
2016-11-19T09:38:41.183Z,9.02
2016-11-19T09:39:55.892Z,9.09
2016-11-19T09:41:11.408Z,9.09
2016-11-19T09:42:27.748Z,9.12
2016-11-19T09:43:57.215Z,9.05
2016-11-19T09:45:31.361Z,8.9
2016-11-19T09:46:53.774Z,9.03
2016-11-19T09:48:25.288Z,9.03
2016-11-19T09:49:40.194Z,9.02
2016-11-19T09:50:54.495Z,9
2016-11-19T09:52:09.116Z,8.99
2016-11-19T09:53:23.588Z,8.87
2016-11-19T09:54:39.090Z,8.92
2016-11-19T09:55:54.429Z,8.9
2016-11-19T09:57:10.023Z,8.93
2016-11-19T09:58:24.693Z,8.79
2016-11-19T09:59:39.115Z,8.81
2016-11-19T10:00:53.771Z,8.87
2016-11-19T10:02:10.305Z,8.95
2016-11-19T10:03:40.679Z,8.9
2016-11-19T10:04:55.588Z,8.95
2016-11-19T10:06:09.965Z,8.9
2016-11-19T10:07:24.789Z,8.92
2016-11-19T10:08:39.906Z,8.77
2016-11-19T10:09:54.859Z,8.79
2016-11-19T10:11:09.800Z,8.77
2016-11-19T10:12:24.689Z,8.72
2016-11-19T10:15:09.462Z,8.89
2016-11-19T10:16:24.028Z,8.93
2016-11-19T10:17:38.763Z,8.92
2016-11-19T10:18:53.957Z,8.99
2016-11-19T10:20:09.600Z,8.95
2016-11-19T10:21:39.045Z,8.92
2016-11-19T10:22:54.141Z,8.93
2016-11-19T10:24:09.617Z,8.87
2016-11-19T10:25:23.859Z,8.89
2016-11-19T10:26:38.263Z,8.78
2016-11-19T10:27:52.936Z,8.95
2016-11-19T10:29:08.047Z,8.97
2016-11-19T10:33:20.456Z,8.97
2016-11-19T10:34:37.788Z,8.96
2016-11-19T10:36:07.151Z,8.99
2016-11-19T10:37:21.936Z,8.87
2016-11-19T10:38:36.339Z,8.92
2016-11-19T10:39:51.352Z,8.79
2016-11-19T10:41:35.549Z,8.78
2016-11-19T10:42:50.139Z,8.84
2016-11-19T10:44:04.853Z,8.93
2016-11-19T10:45:19.997Z,9.05
2016-11-19T10:46:34.755Z,9.09
2016-11-19T10:47:49.382Z,9.3
2016-11-19T10:49:04.471Z,9.3
2016-11-19T10:50:19.252Z,9.37
2016-11-19T10:51:34.286Z,9.48
2016-11-19T10:52:49.008Z,9.59
2016-11-19T10:54:03.488Z,9.58
2016-11-19T10:55:17.857Z,9.62
2016-11-19T10:56:32.643Z,9.67
2016-11-19T10:57:47.779Z,9.8
2016-11-19T10:59:02.606Z,9.74
2016-11-19T11:00:18.404Z,9.9
2016-11-19T11:01:33.152Z,9.66
2016-11-19T11:02:49.447Z,9.69
2016-11-19T11:04:05.860Z,9.64
2016-11-19T11:05:22.676Z,9.7
2016-11-19T11:06:38.957Z,9.56
2016-11-19T11:07:55.286Z,9.52
2016-11-19T11:09:12.095Z,9.64
2016-11-19T11:10:28.158Z,9.64
2016-11-19T11:11:44.548Z,9.7
2016-11-19T11:13:00.708Z,9.63
2016-11-19T11:14:16.681Z,9.55
2016-11-19T11:15:33.520Z,9.69
2016-11-19T11:16:49.926Z,9.69
2016-11-19T11:18:06.218Z,9.52
2016-11-19T11:19:22.100Z,9.45
2016-11-19T11:20:37.990Z,9.51
2016-11-19T11:21:54.024Z,9.55
2016-11-19T11:23:09.869Z,9.47
2016-11-19T11:24:26.194Z,9.49
2016-11-19T11:25:41.930Z,9.59
2016-11-19T11:26:57.732Z,9.66
2016-11-19T11:28:13.844Z,9.7
2016-11-19T11:29:29.733Z,9.63
2016-11-19T11:30:45.489Z,9.7
2016-11-19T11:32:01.627Z,9.81
2016-11-19T11:33:17.505Z,9.76
2016-11-19T11:34:33.784Z,9.84
2016-11-19T11:35:49.793Z,9.97
2016-11-19T11:37:05.989Z,9.85
2016-11-19T11:38:21.915Z,9.85
2016-11-19T11:39:37.936Z,9.87
2016-11-19T11:40:53.869Z,9.59
2016-11-19T11:42:09.425Z,9.55
2016-11-19T11:43:25.591Z,9.69
2016-11-19T11:44:42.127Z,9.81
2016-11-19T11:45:58.884Z,9.99
2016-11-19T11:47:16.798Z,9.95
2016-11-19T11:48:32.431Z,9.82
2016-11-19T11:49:46.990Z,9.87
2016-11-19T11:51:02.036Z,9.84
2016-11-19T11:52:30.724Z,9.97
2016-11-19T11:53:47.936Z,9.97
2016-11-19T11:55:02.988Z,9.97
2016-11-19T11:56:17.656Z,9.84
2016-11-19T11:57:32.217Z,9.99
2016-11-19T11:58:47.134Z,10.02
2016-11-19T12:00:03.370Z,10.06
2016-11-19T12:01:19.068Z,10.12
2016-11-19T12:02:33.658Z,10.17
2016-11-19T12:03:48.298Z,10.21
2016-11-19T12:05:04.886Z,10.27
2016-11-19T12:06:20.137Z,10.09
2016-11-19T12:07:34.794Z,10
2016-11-19T12:08:49.641Z,10.03
2016-11-19T12:10:03.903Z,10
2016-11-19T12:11:33.453Z,10.09
2016-11-19T12:12:48.376Z,10.05
2016-11-19T12:14:02.995Z,10.13
2016-11-19T12:15:18.072Z,10.27
2016-11-19T12:16:32.732Z,10.24
2016-11-19T12:17:47.610Z,10.43
2016-11-19T12:19:01.855Z,10.57
2016-11-19T12:20:16.840Z,10.59
2016-11-19T12:21:31.476Z,10.57
2016-11-19T12:22:46.496Z,10.67
2016-11-19T12:24:01.129Z,10.62
2016-11-19T12:25:30.505Z,10.61
2016-11-19T12:26:47.745Z,10.57
2016-11-19T12:28:02.922Z,10.39
2016-11-19T12:29:17.513Z,10.34
2016-11-19T12:30:32.103Z,10.45
2016-11-19T12:31:46.785Z,10.36
2016-11-19T12:33:01.498Z,10.28
2016-11-19T12:34:16.637Z,10.23
2016-11-19T12:35:31.342Z,10.24
2016-11-19T12:36:45.600Z,10.2
2016-11-19T12:38:00.134Z,10.2
2016-11-19T12:39:15.230Z,10.27
2016-11-19T12:40:30.307Z,10.36
2016-11-19T12:41:44.884Z,10.24
2016-11-19T12:42:59.224Z,10.3
2016-11-19T12:44:13.883Z,10.21
2016-11-19T12:45:29.082Z,10.21
2016-11-19T12:46:43.907Z,10.2
2016-11-19T12:47:58.945Z,10.21
2016-11-19T12:49:13.890Z,10.27
2016-11-19T12:50:28.793Z,10.21
2016-11-19T12:51:43.904Z,10.25
2016-11-19T12:52:59.451Z,10.27
2016-11-19T12:54:14.626Z,10.3
2016-11-19T12:55:29.225Z,10.27
2016-11-19T12:56:43.647Z,10.34
2016-11-19T12:57:58.615Z,10.38
2016-11-19T12:59:13.232Z,10.38
2016-11-19T13:00:28.071Z,10.48
2016-11-19T13:01:42.650Z,10.46
2016-11-19T13:04:12.204Z,10.46
2016-11-19T13:05:26.719Z,10.53
2016-11-19T13:06:41.353Z,10.48
2016-11-19T13:07:55.935Z,10.49
2016-11-19T13:09:10.636Z,10.27
2016-11-19T13:10:25.267Z,10.42
2016-11-19T13:11:40.062Z,10.42
2016-11-19T13:12:57.403Z,10.34
2016-11-19T13:14:11.874Z,10.42
2016-11-19T13:15:26.997Z,10.39
2016-11-19T13:16:42.201Z,10.43
2016-11-19T13:17:57.190Z,10.41
2016-11-19T13:19:38.602Z,10.57
2016-11-19T13:20:53.526Z,10.57
2016-11-19T13:22:08.514Z,10.51
2016-11-19T13:23:37.974Z,10.58
2016-11-19T13:24:53.048Z,10.59
2016-11-19T13:26:08.179Z,10.53
2016-11-19T13:30:23.584Z,10.67
2016-11-19T13:31:38.596Z,10.64
2016-11-19T13:32:53.121Z,10.62
2016-11-19T13:34:08.691Z,10.62
2016-11-19T13:35:24.712Z,10.65
2016-11-19T13:36:40.949Z,10.71
2016-11-19T13:37:57.528Z,10.65
2016-11-19T13:39:14.512Z,10.65
2016-11-19T13:40:30.854Z,10.61
2016-11-19T13:41:46.948Z,10.72
2016-11-19T13:43:03.918Z,10.62
2016-11-19T13:44:19.785Z,10.68
2016-11-19T13:45:35.057Z,10.59
2016-11-19T13:47:13.207Z,10.61
2016-11-19T13:48:28.477Z,10.69
2016-11-19T13:49:43.399Z,10.72
2016-11-19T13:50:57.929Z,10.72
2016-11-19T13:52:13.354Z,10.75
2016-11-19T13:53:29.385Z,10.84
2016-11-19T13:54:44.842Z,10.8
2016-11-19T13:55:59.617Z,10.76
2016-11-19T13:57:14.997Z,10.62
2016-11-19T13:58:34.844Z,10.59
2016-11-19T13:59:50.557Z,10.57
2016-11-19T14:01:11.615Z,10.42
2016-11-19T14:02:30.648Z,10.25
2016-11-19T14:03:45.635Z,10.24
2016-11-19T14:05:00.211Z,10.2
2016-11-19T14:06:15.333Z,10.27
2016-11-19T14:07:30.242Z,10.25
2016-11-19T14:08:45.021Z,10.18
2016-11-19T14:09:59.722Z,10.2
2016-11-19T14:11:16.186Z,10.27
2016-11-19T14:12:47.362Z,10.17
2016-11-19T14:14:18.883Z,10.21
2016-11-19T14:15:35.513Z,10.23
2016-11-19T14:16:52.485Z,10.18
2016-11-19T14:18:10.290Z,10.12
2016-11-19T14:19:26.916Z,10.1
2016-11-19T14:20:42.753Z,10.12
2016-11-19T14:21:58.270Z,10.09
2016-11-19T14:23:13.531Z,10.13
2016-11-19T14:24:27.929Z,10.06
2016-11-19T14:25:44.412Z,10.09
2016-11-19T14:26:59.454Z,10.18
2016-11-19T14:28:46.204Z,10.24
2016-11-19T14:30:03.168Z,10.21
2016-11-19T14:31:18.298Z,10.43
2016-11-19T14:33:34.922Z,10.39
2016-11-19T14:34:49.850Z,10.41
2016-11-19T14:36:08.307Z,10.39
2016-11-19T14:40:05.398Z,10.18
2016-11-19T14:41:22.270Z,10.15
2016-11-19T14:42:39.320Z,10.03
2016-11-19T14:43:54.638Z,10.03
2016-11-19T14:45:09.458Z,10.06
2016-11-19T14:46:24.587Z,10.07
2016-11-19T14:47:39.737Z,10.07
2016-11-19T14:48:54.920Z,10.02
2016-11-19T14:50:09.890Z,9.95
2016-11-19T14:51:25.828Z,9.9
2016-11-19T14:52:41.227Z,9.9
2016-11-19T14:53:56.869Z,9.87
2016-11-19T14:55:12.006Z,9.94
2016-11-19T14:56:26.441Z,9.92
2016-11-19T14:57:40.905Z,9.94
2016-11-19T14:58:56.008Z,9.9
2016-11-19T15:00:10.860Z,9.91
2016-11-19T15:01:27.563Z,9.76
2016-11-19T15:02:43.156Z,9.77
2016-11-19T15:03:57.971Z,9.72
2016-11-19T15:05:12.866Z,9.69
2016-11-19T15:06:31.472Z,9.72
2016-11-19T15:07:46.569Z,9.63
2016-11-19T15:09:01.660Z,9.64
2016-11-19T15:10:16.931Z,9.52
2016-11-19T15:11:32.067Z,9.55
2016-11-19T15:12:48.454Z,9.47
2016-11-19T15:14:04.716Z,9.3
2016-11-19T15:15:19.943Z,9.39
2016-11-19T15:16:35.387Z,9.44
2016-11-19T15:17:49.897Z,9.36
2016-11-19T15:19:04.390Z,9.33
2016-11-19T15:20:19.010Z,9.24
2016-11-19T15:21:34.231Z,9.39
2016-11-19T15:22:50.456Z,9.37
2016-11-19T15:24:05.739Z,9.33
2016-11-19T15:25:21.305Z,9.44
2016-11-19T15:26:35.891Z,9.42
2016-11-19T15:27:50.591Z,9.47
2016-11-19T15:29:05.328Z,9.44
2016-11-19T15:30:19.953Z,9.39
2016-11-19T15:31:34.717Z,9.47
2016-11-19T15:32:49.327Z,9.45
2016-11-19T15:34:03.637Z,9.36
2016-11-19T15:35:17.971Z,9.34
2016-11-19T15:36:32.449Z,9.33
2016-11-19T15:37:47.145Z,9.33
2016-11-19T15:39:02.014Z,9.27
2016-11-19T15:40:16.279Z,9.26
2016-11-19T15:41:31.261Z,9.15
2016-11-19T15:42:46.470Z,9.18
2016-11-19T15:44:01.921Z,9.12
2016-11-19T15:45:17.140Z,9.08
2016-11-19T15:46:32.970Z,9
2016-11-19T15:47:47.391Z,8.96
2016-11-19T15:49:02.675Z,8.95
2016-11-19T15:50:17.472Z,9.05
2016-11-19T15:51:32.517Z,8.93
2016-11-19T15:52:47.088Z,8.87
2016-11-19T15:54:01.390Z,8.93
2016-11-19T15:55:19.414Z,8.9
2016-11-19T15:56:34.068Z,8.84
2016-11-19T15:57:49.585Z,8.78
2016-11-19T15:59:03.864Z,8.74
2016-11-19T16:00:18.539Z,8.74
2016-11-19T16:01:34.134Z,8.75
2016-11-19T16:03:04.612Z,8.75
2016-11-19T16:04:19.410Z,8.71
2016-11-19T16:05:34.029Z,8.72
2016-11-19T16:06:48.913Z,8.77
2016-11-19T16:08:03.743Z,8.63
2016-11-19T16:09:18.408Z,8.59
2016-11-19T16:10:32.750Z,8.6
2016-11-19T16:11:47.007Z,8.6
2016-11-19T16:13:45.670Z,8.61
2016-11-19T16:15:00.216Z,8.61
2016-11-19T16:16:14.996Z,8.66
2016-11-19T16:17:29.904Z,8.57
2016-11-19T16:18:44.870Z,8.54
2016-11-19T16:19:59.469Z,8.56
2016-11-19T16:21:13.978Z,8.49
2016-11-19T16:22:28.935Z,8.49
2016-11-19T16:23:43.428Z,8.41
2016-11-19T16:24:58.025Z,8.45
2016-11-19T16:26:12.490Z,8.45
2016-11-19T16:27:26.939Z,8.32
2016-11-19T16:28:42.409Z,8.28
2016-11-19T16:29:56.873Z,8.23
2016-11-19T16:31:11.759Z,8.18
2016-11-19T16:32:26.950Z,8.26
2016-11-19T16:33:41.989Z,8.21
2016-11-19T16:34:56.715Z,8.17
2016-11-19T16:36:11.347Z,8.17
2016-11-19T16:37:26.630Z,8.17
2016-11-19T16:38:41.081Z,8.06
2016-11-19T16:39:55.274Z,8.17
2016-11-19T16:41:10.539Z,8.17
2016-11-19T16:42:25.006Z,8.14
2016-11-19T16:43:40.087Z,8.18
2016-11-19T16:44:55.288Z,8.11
2016-11-19T16:46:09.539Z,8.16
2016-11-19T16:47:39.336Z,8.14
2016-11-19T16:48:53.659Z,8.05
2016-11-19T16:50:07.830Z,8.08
2016-11-19T16:51:22.687Z,7.98
2016-11-19T16:52:37.591Z,7.83
2016-11-19T16:53:52.342Z,7.9
2016-11-19T16:55:06.670Z,8.01
2016-11-19T16:56:21.574Z,7.96
2016-11-19T16:57:36.360Z,8.06
2016-11-19T16:58:51.058Z,8.06
2016-11-19T17:00:06.217Z,8.09
2016-11-19T17:01:20.651Z,7.99
2016-11-19T17:02:34.870Z,8.03
2016-11-19T17:03:49.137Z,8.06
2016-11-19T17:05:04.024Z,8.03
2016-11-19T17:06:18.429Z,7.99
2016-11-19T17:07:32.764Z,7.83
2016-11-19T17:08:47.535Z,7.91
2016-11-19T17:10:01.756Z,7.95
2016-11-19T17:11:16.558Z,7.83
2016-11-19T17:12:31.431Z,7.77
2016-11-19T17:13:48.296Z,7.75
2016-11-19T17:15:02.986Z,7.8
2016-11-19T17:16:17.450Z,7.7
2016-11-19T17:17:32.542Z,7.7
2016-11-19T17:18:47.149Z,7.61
2016-11-19T17:20:01.505Z,7.66
2016-11-19T17:21:15.876Z,7.67
2016-11-19T17:22:30.298Z,7.59